Time;durP1;ratioP1;P1;durP2;ratioP2;P2;SDS_P1;SDS_P2;PMS_P1;PMS_P2;Temp;Humidity;BMP_temperature;BMP_pressure;BME280_temperature;BME280_humidity;BME280_pressure;Samples;Min_cycle;Max_cycle;Signal;HPM_P1;HPM_P2
2021/11/07 00:02:44;;;;;;;38.60;32.67;;;5.00;99.90;;;;;;4954784;28;20043;-74
2021/11/07 00:04:49;;;;;;;45.03;31.77;;;5.00;99.90;;;;;;4949269;28;20044;-75
2021/11/07 00:10:34;;;;;;;51.80;34.53;;;4.90;99.90;;;;;;4955143;28;20066;-75
2021/11/07 00:12:40;;;;;;;42.13;33.28;;;5.00;99.90;;;;;;4948900;28;20051;-75
2021/11/07 00:15:06;;;;;;;48.03;34.88;;;4.90;99.90;;;;;;4954771;28;20035;-74
2021/11/07 00:17:34;;;;;;;37.08;32.67;;;4.90;99.90;;;;;;4954508;28;20046;-74
2021/11/07 00:20:08;;;;;;;44.03;33.38;;;5.00;99.90;;;;;;4960504;28;20087;-74
2021/11/07 00:22:50;;;;;;;36.63;30.10;;;5.00;99.90;;;;;;4971692;28;20049;-75
2021/11/07 00:25:23;;;;;;;31.27;28.20;;;5.00;99.90;;;;;;4954963;28;20032;-73
2021/11/07 00:27:57;;;;;;;30.63;27.35;;;5.00;99.90;;;;;;4954516;28;20480;-73
2021/11/07 00:30:45;;;;;;;31.95;28.52;;;4.90;99.90;;;;;;4954864;28;20031;-74
2021/11/07 00:38:36;;;;;;;33.88;30.67;;;5.00;99.90;;;;;;4954288;28;20035;-73
2021/11/07 00:43:46;;;;;;;24.23;21.83;;;5.00;99.90;;;;;;4954744;28;20031;-73
2021/11/07 00:46:21;;;;;;;25.05;22.65;;;4.90;99.90;;;;;;4953982;28;20031;-80
2021/11/07 00:51:32;;;;;;;24.48;21.95;;;4.90;99.90;;;;;;4953515;28;20042;-73
2021/11/07 00:54:11;;;;;;;23.40;20.98;;;4.90;99.90;;;;;;4954171;28;20385;-73
2021/11/07 00:56:48;;;;;;;24.17;21.90;;;4.90;99.90;;;;;;4954191;28;20125;-73
2021/11/07 01:01:52;;;;;;;22.33;20.00;;;4.90;99.90;;;;;;4954231;28;20497;-77
2021/11/07 01:04:19;;;;;;;20.38;18.27;;;4.90;99.90;;;;;;4954464;28;20036;-73
2021/11/07 01:06:45;;;;;;;20.17;18.10;;;4.90;99.90;;;;;;4954504;28;20058;-72
2021/11/07 01:09:14;;;;;;;20.40;18.25;;;4.90;99.90;;;;;;4953388;28;20042;-78
2021/11/07 01:11:41;;;;;;;20.05;18.05;;;4.90;99.90;;;;;;4953862;28;20062;-73
2021/11/07 01:14:09;;;;;;;18.65;16.70;;;4.90;99.90;;;;;;4957080;28;20050;-73
2021/11/07 01:16:36;;;;;;;22.23;18.75;;;4.90;99.90;;;;;;4959133;28;20142;-73
2021/11/07 01:19:04;;;;;;;21.90;19.42;;;4.90;99.90;;;;;;4954182;28;20032;-73
2021/11/07 01:21:35;;;;;;;28.25;21.30;;;4.80;99.90;;;;;;4953810;28;20035;-73
2021/11/07 01:24:10;;;;;;;28.67;20.80;;;4.90;99.90;;;;;;4954895;28;20058;-73
2021/11/07 01:26:45;;;;;;;24.70;17.90;;;4.90;99.90;;;;;;4955948;28;20039;-74
2021/11/07 01:29:30;;;;;;;22.10;17.67;;;4.90;99.90;;;;;;4954091;28;20358;-79
2021/11/07 01:31:57;;;;;;;21.40;18.10;;;4.90;99.90;;;;;;4953869;28;20031;-73
2021/11/07 01:34:45;;;;;;;18.20;16.55;;;4.90;99.90;;;;;;4953236;28;20405;-73
2021/11/07 01:37:22;;;;;;;20.73;18.60;;;4.90;99.90;;;;;;4965004;28;20031;-73
2021/11/07 01:40:28;;;;;;;18.25;16.55;;;4.90;99.90;;;;;;4953516;28;20042;-73
2021/11/07 01:42:54;;;;;;;22.27;16.27;;;4.90;99.90;;;;;;4951850;28;20519;-73
2021/11/07 01:45:30;;;;;;;21.55;18.02;;;4.90;99.90;;;;;;4952341;28;20037;-73
2021/11/07 01:48:11;;;;;;;19.02;17.20;;;4.90;99.90;;;;;;4959658;28;20539;-73
2021/11/07 01:50:45;;;;;;;23.52;18.40;;;4.90;99.90;;;;;;4962864;28;20477;-73
2021/11/07 01:55:52;;;;;;;19.52;17.50;;;4.80;99.90;;;;;;4954224;28;20031;-73
2021/11/07 01:58:19;;;;;;;19.17;16.55;;;4.80;99.90;;;;;;4951952;28;20031;-74
2021/11/07 02:00:48;;;;;;;17.15;15.57;;;4.80;99.90;;;;;;4953370;28;20068;-73
2021/11/07 02:03:14;;;;;;;20.45;17.35;;;4.80;99.90;;;;;;4951717;29;20058;-74
2021/11/07 02:05:41;;;;;;;19.70;17.67;;;4.80;99.90;;;;;;4953459;28;20058;-74
2021/11/07 02:08:07;;;;;;;19.23;17.13;;;4.80;99.90;;;;;;4953411;29;20036;-74
2021/11/07 02:10:36;;;;;;;18.70;16.70;;;4.80;99.90;;;;;;4953126;28;20353;-74
2021/11/07 02:13:07;;;;;;;22.10;17.98;;;4.80;99.90;;;;;;4956147;28;20058;-74
2021/11/07 02:15:34;;;;;;;20.42;17.33;;;4.70;99.90;;;;;;4956935;28;20362;-74
2021/11/07 02:18:01;;;;;;;20.40;18.42;;;4.70;99.90;;;;;;4955656;28;20042;-74
2021/11/07 02:20:33;;;;;;;26.27;19.20;;;4.70;99.90;;;;;;4956265;28;20036;-74
2021/11/07 02:23:03;;;;;;;25.88;22.70;;;4.60;99.90;;;;;;4964963;28;20035;-74
2021/11/07 02:25:30;;;;;;;23.77;21.35;;;4.50;99.90;;;;;;4966991;28;20096;-74
2021/11/07 02:27:56;;;;;;;19.85;17.95;;;4.40;99.90;;;;;;4957117;28;20461;-74
2021/11/07 02:30:23;;;;;;;29.98;24.65;;;4.40;99.90;;;;;;4956656;28;20031;-74
2021/11/07 02:32:50;;;;;;;24.60;19.55;;;4.30;99.90;;;;;;4964225;28;20035;-74
2021/11/07 02:35:18;;;;;;;26.23;23.48;;;4.30;99.90;;;;;;4960618;28;20111;-74
2021/11/07 02:37:46;;;;;;;34.97;31.17;;;4.20;99.90;;;;;;4954981;28;20388;-73
2021/11/07 02:40:13;;;;;;;45.88;40.42;;;4.20;99.90;;;;;;4956815;28;20050;-74
2021/11/07 02:42:42;;;;;;;31.50;23.35;;;4.10;99.90;;;;;;4956604;28;20042;-74
2021/11/07 02:45:12;;;;;;;25.13;22.67;;;4.10;99.90;;;;;;4956525;28;20035;-74
2021/11/07 02:47:38;;;;;;;22.95;20.50;;;4.00;99.90;;;;;;4956002;28;20036;-75
2021/11/07 02:50:06;;;;;;;39.65;35.65;;;4.00;99.90;;;;;;4956521;29;20038;-74
2021/11/07 02:52:33;;;;;;;34.25;30.20;;;4.00;99.90;;;;;;4962315;28;20058;-74
2021/11/07 02:55:00;;;;;;;31.23;27.65;;;4.00;99.90;;;;;;4965072;28;20027;-74
2021/11/07 02:57:27;;;;;;;35.15;28.70;;;4.00;99.90;;;;;;4974386;28;20392;-74
2021/11/07 02:59:57;;;;;;;48.33;43.10;;;4.00;99.90;;;;;;4963754;28;20032;-74
2021/11/07 03:02:26;;;;;;;35.97;26.08;;;4.00;99.90;;;;;;4970829;28;20046;-74
2021/11/07 03:04:54;;;;;;;115.97;100.80;;;4.10;99.90;;;;;;4971830;28;20039;-74
2021/11/07 03:07:21;;;;;;;31.58;27.25;;;4.20;99.90;;;;;;4964469;28;20027;-74
2021/11/07 03:09:48;;;;;;;45.10;37.88;;;4.20;99.90;;;;;;4974711;28;20392;-75
2021/11/07 03:12:15;;;;;;;31.80;28.08;;;4.20;99.90;;;;;;4955588;29;20055;-74
2021/11/07 03:14:45;;;;;;;63.67;47.60;;;4.30;99.90;;;;;;4963112;28;20031;-74
2021/11/07 03:17:14;;;;;;;75.20;64.43;;;4.40;99.90;;;;;;4955934;28;20031;-73
2021/11/07 03:19:41;;;;;;;62.22;51.83;;;4.50;99.90;;;;;;4956224;28;20035;-73
2021/11/07 03:22:11;;;;;;;71.60;62.47;;;4.60;99.90;;;;;;4955355;28;20039;-74
2021/11/07 03:24:40;;;;;;;51.15;45.65;;;4.60;99.90;;;;;;4954785;28;20039;-77
2021/11/07 03:27:17;;;;;;;84.20;68.55;;;4.70;99.90;;;;;;4959495;28;20031;-74
2021/11/07 03:29:51;;;;;;;43.38;39.05;;;4.70;99.90;;;;;;4966712;28;20035;-74
2021/11/07 03:32:23;;;;;;;134.80;113.90;;;4.70;99.90;;;;;;4964809;28;20042;-74
2021/11/07 03:34:53;;;;;;;100.28;64.50;;;4.70;99.90;;;;;;4963952;28;20055;-73
2021/11/07 03:37:25;;;;;;;40.15;26.63;;;4.70;99.90;;;;;;4955963;28;20481;-74
2021/11/07 03:39:55;;;;;;;162.90;121.20;;;4.70;99.90;;;;;;4955126;28;20031;-74
2021/11/07 03:42:23;;;;;;;35.15;27.65;;;4.70;99.90;;;;;;4954806;28;20046;-74
2021/11/07 03:44:51;;;;;;;160.75;130.02;;;4.70;99.90;;;;;;4955821;28;20480;-74
2021/11/07 03:47:21;;;;;;;111.43;75.60;;;4.60;99.90;;;;;;4955061;28;20031;-74
2021/11/07 03:49:47;;;;;;;121.68;99.25;;;4.60;99.90;;;;;;4954857;28;20388;-74
2021/11/07 03:52:14;;;;;;;66.75;59.95;;;4.60;99.90;;;;;;4955373;28;20047;-74
2021/11/07 03:54:42;;;;;;;67.35;56.40;;;4.60;99.90;;;;;;4954888;28;20035;-74
2021/11/07 03:57:14;;;;;;;34.65;28.52;;;4.70;99.90;;;;;;4958038;28;20039;-74
2021/11/07 03:59:42;;;;;;;35.72;24.48;;;4.70;99.90;;;;;;4967970;28;20046;-73
2021/11/07 04:02:12;;;;;;;40.63;32.15;;;4.80;99.90;;;;;;4955235;28;20054;-74
2021/11/07 04:04:39;;;;;;;32.13;27.83;;;4.90;99.90;;;;;;4955031;28;20042;-74
2021/11/07 04:07:06;;;;;;;35.58;22.88;;;4.80;99.90;;;;;;4954942;28;20483;-73
2021/11/07 04:09:32;;;;;;;26.27;23.63;;;4.90;99.90;;;;;;4954337;28;20031;-73
2021/11/07 04:11:59;;;;;;;25.60;22.83;;;4.90;99.90;;;;;;4965876;28;20055;-75
2021/11/07 04:14:32;;;;;;;25.77;20.60;;;4.90;99.90;;;;;;4962384;28;20035;-74
2021/11/07 04:16:58;;;;;;;28.00;25.13;;;4.90;99.90;;;;;;4953794;28;20055;-74
2021/11/07 04:19:25;;;;;;;22.33;20.00;;;4.90;99.90;;;;;;4969159;28;20042;-74
2021/11/07 04:21:53;;;;;;;25.10;20.50;;;5.00;99.90;;;;;;4955013;28;20043;-74
2021/11/07 04:24:19;;;;;;;22.58;20.13;;;5.00;99.90;;;;;;4952542;29;20453;-73
2021/11/07 04:26:45;;;;;;;24.05;21.50;;;5.10;99.90;;;;;;4952960;28;20043;-73
2021/11/07 04:29:12;;;;;;;26.13;20.63;;;5.10;99.90;;;;;;4954527;29;20031;-73
2021/11/07 04:31:38;;;;;;;23.83;21.30;;;5.10;99.90;;;;;;4961347;28;20027;-73
2021/11/07 04:34:04;;;;;;;23.25;20.67;;;5.10;99.90;;;;;;4971429;28;20118;-74
2021/11/07 04:36:30;;;;;;;28.00;22.35;;;5.10;99.90;;;;;;4957425;28;20038;-72
2021/11/07 04:39:00;;;;;;;22.58;19.05;;;5.10;99.90;;;;;;4954548;28;20035;-73
2021/11/07 04:41:27;;;;;;;24.02;21.75;;;5.10;99.90;;;;;;4954062;28;20054;-72
2021/11/07 04:43:54;;;;;;;25.25;19.40;;;5.20;99.90;;;;;;4954847;28;20031;-72
2021/11/07 04:46:21;;;;;;;25.25;21.45;;;5.20;99.90;;;;;;4954181;28;20031;-73
2021/11/07 04:48:48;;;;;;;23.52;19.95;;;5.20;99.90;;;;;;4954492;28;20043;-72
2021/11/07 04:51:15;;;;;;;21.55;18.67;;;5.20;99.90;;;;;;4954099;28;20055;-73
2021/11/07 04:53:42;;;;;;;20.83;18.67;;;5.20;99.90;;;;;;4953695;28;20043;-73
2021/11/07 04:56:08;;;;;;;22.17;19.70;;;5.20;99.90;;;;;;4955619;28;20358;-73
2021/11/07 04:58:36;;;;;;;21.08;18.90;;;5.30;99.90;;;;;;4956426;28;20031;-72
2021/11/07 05:01:04;;;;;;;39.13;29.73;;;5.20;99.90;;;;;;4954750;28;20492;-73
2021/11/07 05:03:33;;;;;;;24.15;20.52;;;5.30;99.90;;;;;;4953919;28;20039;-73
2021/11/07 05:06:00;;;;;;;25.88;22.77;;;5.20;99.90;;;;;;4954248;28;20035;-73
2021/11/07 05:08:26;;;;;;;29.92;26.67;;;5.20;99.90;;;;;;4953994;28;20035;-72
2021/11/07 05:10:53;;;;;;;22.52;19.77;;;5.30;99.90;;;;;;4954326;28;20027;-72
2021/11/07 05:13:19;;;;;;;22.35;19.23;;;5.20;99.90;;;;;;4964781;28;20050;-73
2021/11/07 05:15:45;;;;;;;24.33;21.05;;;5.30;99.90;;;;;;4954048;28;20195;-73
2021/11/07 05:18:12;;;;;;;19.52;17.65;;;5.30;99.90;;;;;;4953542;28;20035;-73
2021/11/07 05:20:38;;;;;;;21.85;19.67;;;5.30;99.90;;;;;;4953096;28;20416;-73
2021/11/07 05:23:04;;;;;;;22.92;20.70;;;5.30;99.90;;;;;;4954347;28;20466;-73
2021/11/07 05:25:30;;;;;;;24.00;19.63;;;5.30;99.90;;;;;;4953278;28;20027;-73
2021/11/07 05:27:57;;;;;;;20.45;18.40;;;5.40;99.90;;;;;;4954372;28;20039;-72
2021/11/07 05:30:23;;;;;;;20.73;18.58;;;5.40;99.90;;;;;;4953446;28;20027;-73
2021/11/07 05:32:49;;;;;;;21.58;17.27;;;5.40;99.90;;;;;;4953363;28;20042;-72
2021/11/07 05:35:19;;;;;;;18.38;16.48;;;5.40;99.90;;;;;;4967784;28;20035;-74
2021/11/07 05:37:47;;;;;;;20.02;17.85;;;5.40;99.90;;;;;;4960955;28;20055;-73
2021/11/07 05:40:14;;;;;;;19.85;17.52;;;5.40;99.90;;;;;;4953772;28;20477;-73
2021/11/07 05:42:41;;;;;;;23.38;16.52;;;5.40;99.90;;;;;;4953063;28;20039;-73
2021/11/07 05:45:07;;;;;;;26.55;15.77;;;5.30;99.90;;;;;;4953429;28;20034;-73
2021/11/07 05:47:34;;;;;;;24.83;17.65;;;5.40;99.90;;;;;;4955394;28;20475;-74
2021/11/07 05:50:00;;;;;;;22.65;18.20;;;5.30;99.90;;;;;;4956454;28;20043;-73
2021/11/07 05:52:26;;;;;;;17.98;16.25;;;5.30;99.90;;;;;;4960644;28;20039;-73
2021/11/07 05:54:53;;;;;;;20.13;17.98;;;5.30;99.90;;;;;;4975745;28;20138;-73
2021/11/07 05:57:19;;;;;;;20.23;17.98;;;5.30;99.90;;;;;;4960567;28;20058;-77
2021/11/07 05:59:51;;;;;;;19.10;17.27;;;5.40;99.90;;;;;;4956978;28;20031;-72
2021/11/07 06:02:18;;;;;;;19.45;17.48;;;5.40;99.90;;;;;;4971974;28;20062;-72
2021/11/07 06:04:45;;;;;;;31.40;18.27;;;5.40;99.90;;;;;;4966043;28;20046;-73
2021/11/07 06:07:11;;;;;;;20.50;17.90;;;5.40;99.90;;;;;;4962362;28;20022;-73
2021/11/07 06:09:37;;;;;;;19.02;16.60;;;5.40;99.90;;;;;;4959363;28;20042;-75
2021/11/07 06:12:04;;;;;;;21.70;18.00;;;5.40;99.90;;;;;;4966255;28;20062;-75
2021/11/07 06:14:30;;;;;;;19.00;17.10;;;5.40;99.90;;;;;;4974126;28;20047;-74
2021/11/07 06:16:56;;;;;;;23.35;18.17;;;5.40;99.90;;;;;;4960582;28;20369;-74
2021/11/07 06:19:23;;;;;;;22.38;17.65;;;5.40;99.90;;;;;;4956514;28;20043;-74
2021/11/07 06:21:53;;;;;;;31.48;19.25;;;5.40;99.90;;;;;;4969260;28;20392;-74
2021/11/07 06:24:26;;;;;;;18.08;16.42;;;5.40;99.90;;;;;;4966774;28;20071;-75
2021/11/07 06:26:55;;;;;;;18.40;16.45;;;5.40;99.90;;;;;;4971249;28;20038;-75
2021/11/07 06:29:21;;;;;;;18.08;16.15;;;5.40;99.90;;;;;;4971660;28;20046;-75
2021/11/07 06:31:52;;;;;;;21.35;17.95;;;5.40;99.90;;;;;;4956794;28;20039;-75
2021/11/07 06:34:21;;;;;;;18.10;16.42;;;5.40;99.90;;;;;;4956376;28;20040;-81
2021/11/07 06:36:47;;;;;;;24.02;16.98;;;5.40;99.90;;;;;;4968465;28;20035;-74
2021/11/07 06:39:15;;;;;;;20.48;18.52;;;5.40;99.90;;;;;;4960615;28;20035;-75
2021/11/07 06:41:43;;;;;;;18.60;16.80;;;5.40;99.90;;;;;;4956159;28;20039;-76
2021/11/07 06:44:11;;;;;;;20.48;16.13;;;5.40;99.90;;;;;;4956673;28;20035;-76
2021/11/07 06:46:37;;;;;;;20.30;17.38;;;5.40;99.90;;;;;;4955868;28;20038;-74
2021/11/07 06:49:06;;;;;;;34.65;18.02;;;5.40;99.90;;;;;;4956409;28;20042;-75
2021/11/07 06:51:32;;;;;;;22.20;18.25;;;5.30;99.90;;;;;;4956313;28;20465;-75
2021/11/07 06:53:59;;;;;;;20.30;18.30;;;5.30;99.90;;;;;;4954466;28;20154;-74
2021/11/07 06:56:25;;;;;;;25.73;19.10;;;5.40;99.90;;;;;;4956022;28;20034;-74
2021/11/07 06:58:52;;;;;;;20.08;17.95;;;5.40;99.90;;;;;;4963210;28;20424;-75
2021/11/07 07:01:18;;;;;;;23.33;18.58;;;5.40;99.90;;;;;;4956144;28;20034;-75
2021/11/07 07:03:45;;;;;;;26.95;20.27;;;5.40;99.90;;;;;;4956199;28;20031;-75
2021/11/07 07:06:11;;;;;;;22.92;18.83;;;5.40;99.90;;;;;;4956089;28;20035;-75
2021/11/07 07:08:47;;;;;;;20.33;18.23;;;5.40;99.90;;;;;;4956131;28;20043;-74
2021/11/07 07:11:20;;;;;;;23.50;17.00;;;5.40;99.90;;;;;;4956125;28;20035;-76
2021/11/07 07:14:08;;;;;;;19.83;16.67;;;5.40;99.90;;;;;;4955958;28;20070;-75
2021/11/07 07:22:06;;;;;;;19.67;17.55;;;5.40;99.90;;;;;;4955512;28;20047;-75
2021/11/07 07:29:56;;;;;;;17.05;15.32;;;5.50;99.90;;;;;;4955288;28;20038;-74
2021/11/07 07:34:55;;;;;;;;;;;5.60;99.90;;;;;;4956050;28;20031;-77
2021/11/07 07:37:21;;;;;;;14.38;13.07;;;5.70;99.90;;;;;;4955406;28;19907;-76
2021/11/07 07:39:52;;;;;;;15.32;12.98;;;5.70;99.90;;;;;;4954016;28;20487;-75
2021/11/07 07:42:22;;;;;;;13.20;11.73;;;5.80;99.90;;;;;;4955642;28;20035;-75
2021/11/07 07:44:52;;;;;;;12.40;11.23;;;5.80;99.90;;;;;;4955319;28;20496;-74
2021/11/07 07:47:20;;;;;;;15.57;12.73;;;5.80;99.90;;;;;;4954982;28;20033;-73
2021/11/07 07:49:51;;;;;;;15.43;13.40;;;5.80;99.90;;;;;;4955543;28;20400;-75
2021/11/07 07:52:21;;;;;;;;;;;5.80;99.90;;;;;;4955568;28;20035;-75
2021/11/07 07:54:47;;;;;;;14.23;12.82;;;5.80;99.90;;;;;;4971558;28;19914;-74
2021/11/07 07:57:14;;;;;;;18.92;13.05;;;5.80;99.90;;;;;;4963203;28;20035;-75
2021/11/07 07:59:40;;;;;;;15.80;12.68;;;5.70;99.90;;;;;;4954652;28;20052;-75
2021/11/07 08:02:06;;;;;;;14.30;11.60;;;5.70;99.90;;;;;;4973833;28;20030;-74
2021/11/07 08:04:32;;;;;;;15.70;14.13;;;5.70;99.90;;;;;;4964341;28;20053;-74
2021/11/07 08:06:58;;;;;;;13.95;12.45;;;5.70;99.90;;;;;;4955281;28;20380;-74
2021/11/07 08:09:25;;;;;;;16.38;14.35;;;5.70;99.90;;;;;;4953788;28;20039;-75
2021/11/07 08:11:51;;;;;;;14.52;12.75;;;5.70;99.90;;;;;;4954359;28;20051;-73
2021/11/07 08:14:18;;;;;;;18.48;15.45;;;5.80;99.90;;;;;;4954909;28;20043;-74
2021/11/07 08:16:44;;;;;;;19.52;14.43;;;5.80;99.90;;;;;;4954204;28;20035;-74
2021/11/07 08:19:10;;;;;;;18.25;16.25;;;5.80;99.90;;;;;;4954890;28;20051;-74
2021/11/07 08:21:39;;;;;;;17.02;15.25;;;5.80;99.90;;;;;;4959064;28;20457;-74
2021/11/07 08:24:07;;;;;;;18.30;16.38;;;5.80;99.90;;;;;;4960040;28;20055;-74
2021/11/07 08:26:35;;;;;;;22.25;17.15;;;5.90;99.90;;;;;;4959238;28;20043;-74
2021/11/07 08:29:02;;;;;;;18.65;16.80;;;6.00;99.90;;;;;;4965174;28;20039;-75
2021/11/07 08:31:30;;;;;;;21.38;18.58;;;6.00;99.90;;;;;;4954151;28;20036;-74
2021/11/07 08:33:57;;;;;;;19.90;16.10;;;6.00;99.90;;;;;;4954396;28;20377;-73
2021/11/07 08:36:31;;;;;;;19.75;17.65;;;6.00;99.90;;;;;;4954296;28;20031;-77
2021/11/07 08:39:02;;;;;;;18.95;17.10;;;6.00;99.90;;;;;;4972811;28;20043;-73
2021/11/07 08:41:30;;;;;;;15.68;14.07;;;6.00;99.90;;;;;;4963187;28;20385;-73
2021/11/07 09:00:24;;;;;;;18.77;16.98;;;6.40;99.90;;;;;;4954367;28;20050;-73
2021/11/07 09:05:34;;;;;;;15.10;13.55;;;6.50;99.90;;;;;;4954481;28;20027;-73
2021/11/07 09:10:35;;;;;;;12.63;11.43;;;6.70;99.90;;;;;;4954607;28;20027;-73
2021/11/07 09:13:06;;;;;;;19.13;15.48;;;6.80;99.90;;;;;;4953296;28;20071;-74
2021/11/07 09:15:34;;;;;;;42.85;34.63;;;6.80;99.90;;;;;;4953849;29;20484;-73
2021/11/07 09:18:01;;;;;;;22.70;20.20;;;6.80;99.90;;;;;;4954019;28;20039;-73
2021/11/07 09:20:42;;;;;;;13.48;12.10;;;6.70;99.90;;;;;;4953848;28;20031;-73
2021/11/07 09:28:29;;;;;;;11.35;10.25;;;6.70;99.90;;;;;;4957877;28;20434;-72
2021/11/07 09:31:11;;;;;;;9.45;8.75;;;6.80;99.90;;;;;;4957846;28;20047;-73
2021/11/07 09:34:19;;;;;;;19.13;11.95;;;6.90;99.90;;;;;;4965792;28;20062;-73
2021/11/07 09:44:13;;;;;;;18.27;16.20;;;6.80;99.90;;;;;;4957659;28;20042;-72
2021/11/07 09:46:43;;;;;;;10.15;9.25;;;6.80;99.90;;;;;;4969758;28;20035;-73
2021/11/07 09:49:33;;;;;;;11.82;9.70;;;6.80;99.90;;;;;;4964968;28;20038;-73
2021/11/07 09:52:17;;;;;;;12.15;10.00;;;6.80;99.90;;;;;;4957243;28;20394;-73
2021/11/07 09:54:48;;;;;;;13.60;11.35;;;6.80;99.90;;;;;;4957257;28;20047;-73
2021/11/07 09:57:20;;;;;;;11.57;9.73;;;6.70;99.90;;;;;;4957636;28;20031;-73
2021/11/07 09:59:51;;;;;;;9.95;8.93;;;6.70;99.90;;;;;;4956545;28;20058;-72
2021/11/07 10:02:17;;;;;;;;;;;6.70;99.90;;;;;;4958092;28;20035;-72
2021/11/07 10:04:44;;;;;;;11.80;10.60;;;6.70;99.90;;;;;;4957082;28;19922;-72
2021/11/07 10:07:29;;;;;;;14.90;11.05;;;6.80;99.90;;;;;;4968186;28;20042;-71
2021/11/07 10:10:00;;;;;;;12.27;11.10;;;6.80;99.90;;;;;;4959201;28;20043;-71
2021/11/07 10:12:39;;;;;;;9.80;8.90;;;6.90;99.90;;;;;;4960908;28;20058;-72
2021/11/07 10:15:10;;;;;;;10.52;9.63;;;6.90;99.90;;;;;;4960789;28;20450;-72
2021/11/07 10:17:46;;;;;;;9.77;8.82;;;6.90;99.90;;;;;;4956602;28;20039;-71
2021/11/07 10:20:23;;;;;;;10.57;9.57;;;6.90;99.90;;;;;;4957100;28;20031;-72
2021/11/07 10:23:12;;;;;;;9.65;8.75;;;7.00;99.90;;;;;;4956764;28;20027;-72
2021/11/07 10:25:51;;;;;;;14.60;11.98;;;7.00;99.90;;;;;;4970918;28;20050;-71
2021/11/07 10:28:34;;;;;;;11.68;7.70;;;7.10;99.90;;;;;;4956806;29;20068;-72
2021/11/07 10:31:19;;;;;;;10.23;8.07;;;7.30;99.90;;;;;;4957126;28;20027;-72
2021/11/07 10:37:11;;;;;;;6.57;5.97;;;7.70;99.90;;;;;;4945473;28;20469;-72
2021/11/07 10:43:02;;;;;;;10.73;9.30;;;7.70;99.90;;;;;;4974025;28;20443;-73
2021/11/07 10:53:27;;;;;;;10.15;8.55;;;8.10;99.90;;;;;;4957545;28;20039;-73
2021/11/07 10:56:01;;;;;;;7.18;6.47;;;8.30;99.90;;;;;;4957043;28;20042;-72
2021/11/07 10:58:39;;;;;;;5.82;5.22;;;8.40;99.90;;;;;;4955828;29;20047;-73
2021/11/07 11:01:13;;;;;;;4.43;4.03;;;8.50;99.90;;;;;;4966731;28;20041;-73
2021/11/07 11:03:44;;;;;;;4.88;4.30;;;8.50;99.90;;;;;;4974397;28;20045;-73
2021/11/07 11:06:19;;;;;;;5.35;4.50;;;8.50;99.90;;;;;;4963599;28;20039;-73
2021/11/07 11:08:55;;;;;;;4.40;3.53;;;8.50;99.90;;;;;;4963049;28;20243;-73
2021/11/07 11:14:40;;;;;;;7.00;3.67;;;8.40;99.90;;;;;;4955912;28;20380;-73
2021/11/07 11:17:25;;;;;;;3.33;2.95;;;8.30;99.90;;;;;;4955206;28;20054;-73
2021/11/07 11:20:29;;;;;;;11.40;7.18;;;8.20;99.90;;;;;;4955852;28;20039;-73
2021/11/07 11:23:19;;;;;;;8.88;7.85;;;8.30;99.90;;;;;;4961718;28;20035;-73
2021/11/07 11:25:52;;;;;;;9.68;8.60;;;8.40;99.90;;;;;;4969660;28;20046;-74
2021/11/07 11:28:32;;;;;;;8.02;6.10;;;8.40;99.90;;;;;;4956079;28;20038;-74
2021/11/07 11:31:19;;;;;;;7.00;4.78;;;8.50;99.90;;;;;;4955683;28;20035;-73
2021/11/07 11:33:50;;;;;;;3.88;3.47;;;8.50;99.90;;;;;;4955086;28;20043;-72
2021/11/07 11:39:09;;;;;;;5.65;3.63;;;8.70;99.90;;;;;;4969232;28;20507;-73
2021/11/07 11:41:49;;;;;;;4.80;3.97;;;8.70;99.90;;;;;;4955114;28;20484;-73
2021/11/07 11:44:17;;;;;;;5.28;4.57;;;8.80;99.90;;;;;;4955009;28;20031;-73
2021/11/07 11:47:09;;;;;;;21.75;19.50;;;8.80;99.90;;;;;;4955094;28;20392;-72
2021/11/07 12:03:54;;;;;;;3.22;2.35;;;9.10;99.90;;;;;;4949921;28;20050;-73
2021/11/07 12:06:23;;;;;;;3.50;2.72;;;9.20;99.90;;;;;;4955552;28;20035;-73
2021/11/07 12:12:01;;;;;;;2.97;2.53;;;9.30;99.90;;;;;;4954536;28;20050;-72
2021/11/07 12:14:43;;;;;;;2.78;2.53;;;9.30;99.90;;;;;;4954767;28;20432;-73
2021/11/07 12:17:11;;;;;;;4.70;2.92;;;9.40;99.90;;;;;;4961730;28;20050;-73
2021/11/07 12:19:42;;;;;;;3.05;2.38;;;9.30;99.90;;;;;;4968172;28;20031;-73
2021/11/07 12:22:16;;;;;;;4.03;3.60;;;9.30;99.90;;;;;;4955295;28;20039;-73
2021/11/07 12:24:47;;;;;;;4.47;2.70;;;9.30;99.90;;;;;;4954969;28;20389;-73
2021/11/07 12:27:22;;;;;;;3.10;2.40;;;9.40;99.90;;;;;;4955000;28;20038;-73
2021/11/07 12:29:58;;;;;;;2.55;2.35;;;9.30;99.90;;;;;;4952950;28;20047;-72
2021/11/07 12:32:34;;;;;;;2.83;2.53;;;9.20;99.90;;;;;;4970469;28;20031;-73
2021/11/07 12:35:18;;;;;;;2.63;1.80;;;9.10;99.90;;;;;;4958299;28;20042;-73
2021/11/07 12:41:03;;;;;;;3.85;3.47;;;9.10;99.90;;;;;;4954258;28;20038;-73
2021/11/07 12:43:40;;;;;;;2.17;1.75;;;9.00;99.90;;;;;;4967847;28;20054;-75
2021/11/07 12:46:12;;;;;;;3.28;2.20;;;8.90;99.90;;;;;;4953479;28;20054;-73
2021/11/07 12:48:40;;;;;;;2.05;1.85;;;8.80;99.90;;;;;;4952496;28;20043;-74
2021/11/07 12:51:11;;;;;;;1.98;1.77;;;8.70;99.90;;;;;;4937447;29;20054;-74
2021/11/07 12:54:07;;;;;;;2.33;1.92;;;8.70;99.90;;;;;;4957879;28;20481;-73
2021/11/07 12:56:54;;;;;;;10.80;9.02;;;8.80;99.90;;;;;;4964241;28;20043;-74
2021/11/07 12:59:28;;;;;;;4.65;4.20;;;8.80;99.90;;;;;;4954089;29;20051;-73
2021/11/07 13:02:04;;;;;;;3.00;2.60;;;8.80;99.90;;;;;;4954190;28;20034;-73
2021/11/07 13:04:33;;;;;;;5.07;3.33;;;8.80;99.90;;;;;;4963175;28;20040;-73
2021/11/07 13:07:00;;;;;;;5.45;4.95;;;8.80;99.90;;;;;;4961702;28;20039;-75
2021/11/07 13:09:41;;;;;;;4.80;4.05;;;8.80;99.90;;;;;;4964358;28;20400;-73
2021/11/07 13:12:29;;;;;;;2.58;2.38;;;8.80;99.90;;;;;;4970599;28;20058;-72
2021/11/07 13:18:31;;;;;;;4.85;2.90;;;8.80;99.90;;;;;;4959893;28;20047;-73
2021/11/07 13:27:02;;;;;;;6.93;4.85;;;8.80;99.90;;;;;;4970948;28;20031;-73
2021/11/07 13:29:42;;;;;;;7.75;4.28;;;8.70;99.90;;;;;;4965794;28;20030;-72
2021/11/07 13:35:12;;;;;;;4.63;3.42;;;8.70;99.90;;;;;;4969898;28;20491;-73
2021/11/07 13:37:48;;;;;;;5.63;4.20;;;8.70;99.90;;;;;;4967627;28;20488;-73
2021/11/07 13:40:29;;;;;;;4.80;4.28;;;8.80;99.90;;;;;;4969438;28;20031;-74
2021/11/07 13:43:08;;;;;;;3.67;2.55;;;8.80;99.90;;;;;;4971829;28;20030;-73
2021/11/07 13:45:37;;;;;;;3.58;2.78;;;8.80;99.90;;;;;;4970908;28;20030;-74
2021/11/07 13:48:13;;;;;;;2.17;1.98;;;8.90;99.90;;;;;;4972620;28;20027;-73
2021/11/07 13:50:41;;;;;;;4.63;4.15;;;8.90;99.90;;;;;;4968605;28;20500;-74
2021/11/07 13:53:15;;;;;;;5.05;3.13;;;8.90;99.90;;;;;;4969134;28;20054;-73
2021/11/07 13:55:42;;;;;;;3.70;1.90;;;8.90;99.90;;;;;;4969292;28;20039;-73
2021/11/07 13:58:19;;;;;;;3.08;2.38;;;8.90;99.90;;;;;;4969582;28;20035;-74
2021/11/07 14:00:46;;;;;;;5.88;4.28;;;8.90;99.90;;;;;;4968267;28;20027;-74
2021/11/07 14:03:15;;;;;;;7.53;6.72;;;9.00;99.90;;;;;;4970998;28;20038;-73
2021/11/07 14:05:57;;;;;;;5.43;4.85;;;8.90;99.90;;;;;;4961272;28;20396;-74
2021/11/07 14:08:25;;;;;;;4.43;2.38;;;8.90;99.90;;;;;;4966342;28;20035;-74
2021/11/07 14:10:51;;;;;;;4.53;2.58;;;8.90;99.90;;;;;;4957518;28;20222;-74
2021/11/07 14:13:18;;;;;;;2.47;1.70;;;8.80;99.90;;;;;;4958059;28;20055;-73
2021/11/07 14:15:48;;;;;;;2.72;2.50;;;8.90;99.90;;;;;;4957003;28;20046;-73
2021/11/07 14:18:23;;;;;;;3.23;2.57;;;8.80;99.90;;;;;;4973502;28;20110;-73
2021/11/07 14:20:50;;;;;;;4.25;2.97;;;8.90;99.90;;;;;;4958493;28;20034;-73
2021/11/07 14:23:28;;;;;;;2.75;2.17;;;8.90;99.90;;;;;;4970846;28;20054;-73
2021/11/07 14:26:15;;;;;;;4.90;3.47;;;8.90;99.90;;;;;;4960192;28;20406;-73
2021/11/07 14:40:10;;;;;;;2.50;2.30;;;8.70;99.90;;;;;;4962590;28;20045;-73
2021/11/07 14:43:04;;;;;;;4.30;2.05;;;8.70;99.90;;;;;;4963053;28;20035;-73
2021/11/07 14:50:49;;;;;;;3.45;2.97;;;8.80;99.90;;;;;;4964991;28;20033;-74
2021/11/07 14:53:24;;;;;;;3.65;2.72;;;8.70;99.90;;;;;;4968002;28;20488;-73
2021/11/07 14:56:13;;;;;;;4.03;2.83;;;8.70;99.90;;;;;;4955251;28;20047;-74
2021/11/07 15:01:51;;;;;;;4.18;2.70;;;8.70;99.90;;;;;;4958764;28;20050;-74
2021/11/07 15:04:29;;;;;;;5.25;4.80;;;8.60;99.90;;;;;;4956231;28;20035;-75
2021/11/07 15:07:11;;;;;;;4.95;4.43;;;8.60;99.90;;;;;;4955908;28;20035;-75
2021/11/07 15:17:47;;;;;;;4.75;4.28;;;8.50;99.90;;;;;;4963669;28;20480;-75
2021/11/07 15:20:50;;;;;;;3.85;2.92;;;8.50;99.90;;;;;;4960226;28;20046;-75
2021/11/07 15:23:40;;;;;;;4.28;2.80;;;8.50;99.90;;;;;;4967564;28;20471;-75
2021/11/07 15:26:12;;;;;;;9.05;3.47;;;8.50;99.90;;;;;;4950987;28;20500;-75
2021/11/07 15:28:42;;;;;;;5.18;4.65;;;8.50;99.90;;;;;;4962034;28;20031;-75
2021/11/07 15:31:16;;;;;;;3.97;3.15;;;8.50;99.90;;;;;;4955294;28;20471;-76
2021/11/07 15:33:45;;;;;;;2.53;2.33;;;8.50;99.90;;;;;;4956046;28;20458;-75